createdAt,value
2018-01-24T00:00:42.514Z,7.60
2018-01-24T00:03:09.973Z,7.70
2018-01-24T00:05:37.456Z,7.70
2018-01-24T00:08:04.901Z,7.70
2018-01-24T00:10:32.374Z,7.70
2018-01-24T00:12:59.940Z,7.80
2018-01-24T00:15:27.385Z,7.80
2018-01-24T00:17:54.834Z,7.80
2018-01-24T00:20:22.306Z,7.80
2018-01-24T00:22:49.783Z,7.80
2018-01-24T00:25:17.226Z,7.80
2018-01-24T00:27:44.678Z,7.80
2018-01-24T00:30:12.134Z,7.80
2018-01-24T00:32:39.615Z,7.80
2018-01-24T00:35:07.079Z,7.90
2018-01-24T00:37:34.506Z,7.90
2018-01-24T00:40:02.752Z,7.90
2018-01-24T00:42:30.186Z,7.90
2018-01-24T00:44:57.618Z,7.90
2018-01-24T00:47:25.074Z,8.00
2018-01-24T00:49:52.529Z,8.00
2018-01-24T00:52:19.974Z,8.00
2018-01-24T00:54:47.423Z,8.00
2018-01-24T00:57:14.889Z,8.00
2018-01-24T00:59:42.338Z,8.10
2018-01-24T01:02:09.795Z,8.10
2018-01-24T01:04:37.268Z,8.10
2018-01-24T01:07:04.711Z,8.10
2018-01-24T01:09:32.154Z,8.10
2018-01-24T01:11:59.625Z,8.20
2018-01-24T01:14:27.167Z,8.20
2018-01-24T01:16:54.622Z,8.20
2018-01-24T01:19:22.057Z,8.20
2018-01-24T01:21:49.540Z,8.20
2018-01-24T01:24:16.978Z,8.30
2018-01-24T01:26:44.410Z,8.30
2018-01-24T01:29:11.866Z,8.30
2018-01-24T01:31:40.061Z,8.30
2018-01-24T01:34:07.532Z,8.30
2018-01-24T01:36:34.962Z,8.40
2018-01-24T01:39:02.423Z,8.40
2018-01-24T01:41:29.879Z,8.40
2018-01-24T01:43:57.329Z,8.40
2018-01-24T01:46:24.766Z,8.40
2018-01-24T01:48:52.218Z,8.50
2018-01-24T01:51:19.671Z,8.50
2018-01-24T01:53:47.149Z,8.50
2018-01-24T01:56:14.582Z,8.50
2018-01-24T01:58:42.785Z,8.50
2018-01-24T02:01:10.254Z,8.50
2018-01-24T02:03:37.699Z,8.60
2018-01-24T02:06:05.130Z,8.60
2018-01-24T02:08:33.357Z,8.60
2018-01-24T02:11:00.798Z,8.60
2018-01-24T02:13:28.283Z,8.60
2018-01-24T02:15:55.714Z,8.60
2018-01-24T02:18:23.154Z,8.70
2018-01-24T02:20:50.614Z,8.70
2018-01-24T02:23:18.089Z,8.70
2018-01-24T02:25:45.533Z,8.70
2018-01-24T02:28:13.003Z,8.70
2018-01-24T02:30:40.448Z,8.70
2018-01-24T02:33:07.899Z,8.70
2018-01-24T02:35:35.366Z,8.70
2018-01-24T02:38:02.830Z,8.70
2018-01-24T02:40:30.287Z,8.70
2018-01-24T02:42:57.719Z,8.70
2018-01-24T02:45:25.191Z,8.80
2018-01-24T02:47:52.651Z,8.80
2018-01-24T02:50:20.090Z,8.80
2018-01-24T02:52:47.547Z,8.80
2018-01-24T02:55:15.003Z,8.80
2018-01-24T02:57:42.450Z,8.80
2018-01-24T03:00:10.671Z,8.80
2018-01-24T03:02:38.135Z,8.80
2018-01-24T03:05:05.568Z,8.90
2018-01-24T03:07:33.038Z,8.90
2018-01-24T03:10:00.498Z,8.90
2018-01-24T03:12:28.726Z,8.90
2018-01-24T03:14:56.188Z,8.90
2018-01-24T03:17:23.631Z,8.90
2018-01-24T03:19:51.136Z,8.90
2018-01-24T03:22:18.526Z,9.00
2018-01-24T03:24:45.991Z,9.00
2018-01-24T03:27:13.500Z,9.00
2018-01-24T03:29:40.938Z,9.00
2018-01-24T03:32:08.498Z,9.00
2018-01-24T03:34:35.991Z,9.00
2018-01-24T03:37:03.443Z,9.00
2018-01-24T03:39:30.927Z,9.00
2018-01-24T03:41:58.414Z,9.00
2018-01-24T03:44:25.875Z,9.10
2018-01-24T03:46:53.379Z,9.10
2018-01-24T03:49:20.839Z,9.10
2018-01-24T03:51:48.323Z,9.10
2018-01-24T03:54:15.779Z,9.10
2018-01-24T03:56:43.242Z,9.10
2018-01-24T03:59:11.486Z,9.10
2018-01-24T04:01:39.729Z,9.10
2018-01-24T04:04:07.227Z,9.10
2018-01-24T04:06:34.683Z,9.10
2018-01-24T04:09:02.139Z,9.10
2018-01-24T04:11:29.672Z,9.10
2018-01-24T04:13:57.131Z,9.10
2018-01-24T04:16:24.587Z,9.20
2018-01-24T04:18:52.074Z,9.20
2018-01-24T04:21:19.538Z,9.20
2018-01-24T04:23:47.034Z,9.20
2018-01-24T04:26:14.491Z,9.20
2018-01-24T04:28:41.951Z,9.20
2018-01-24T04:31:09.452Z,9.20
2018-01-24T04:33:36.912Z,9.20
2018-01-24T04:36:04.370Z,9.20
2018-01-24T04:38:31.852Z,9.20
2018-01-24T04:41:00.168Z,9.20
2018-01-24T04:43:27.654Z,9.20
2018-01-24T04:45:55.178Z,9.20
2018-01-24T04:48:22.654Z,9.20
2018-01-24T04:50:50.923Z,9.30
2018-01-24T04:53:18.431Z,9.30
2018-01-24T04:55:46.668Z,9.30
2018-01-24T04:58:14.132Z,9.30
2018-01-24T05:00:41.615Z,9.30
2018-01-24T05:03:09.080Z,9.30
2018-01-24T05:05:36.573Z,9.30
2018-01-24T05:08:04.060Z,9.30
2018-01-24T05:10:31.530Z,9.30
2018-01-24T05:12:59.022Z,9.30
2018-01-24T05:15:27.251Z,9.30
2018-01-24T05:17:54.711Z,9.30
2018-01-24T05:20:27.570Z,9.30
2018-01-24T05:22:55.799Z,9.30
2018-01-24T05:25:24.066Z,9.40
2018-01-24T05:27:51.523Z,9.40
2018-01-24T05:30:19.754Z,9.40
2018-01-24T05:32:47.234Z,9.40
2018-01-24T05:35:14.692Z,9.40
2018-01-24T05:37:42.957Z,9.40
2018-01-24T05:40:10.422Z,9.40
2018-01-24T05:42:37.907Z,9.40
2018-01-24T05:45:05.374Z,9.40
2018-01-24T05:47:33.630Z,9.40
2018-01-24T05:50:01.119Z,9.40
2018-01-24T05:52:28.606Z,9.40
2018-01-24T05:54:56.066Z,9.40
2018-01-24T05:57:23.545Z,9.40
2018-01-24T05:59:51.032Z,9.40
2018-01-24T06:02:19.254Z,9.40
2018-01-24T06:04:46.736Z,9.40
2018-01-24T06:07:14.984Z,9.40
2018-01-24T06:09:42.471Z,9.40
2018-01-24T06:12:09.958Z,9.40
2018-01-24T06:14:37.428Z,9.30
2018-01-24T06:17:04.930Z,9.30
2018-01-24T06:19:32.415Z,9.30
2018-01-24T06:21:59.879Z,9.30
2018-01-24T06:24:27.340Z,9.30
2018-01-24T06:26:54.831Z,9.20
2018-01-24T06:29:22.335Z,9.20
2018-01-24T06:31:49.817Z,9.20
2018-01-24T06:34:18.055Z,9.10
2018-01-24T06:36:45.547Z,9.10
2018-01-24T06:39:13.778Z,9.10
2018-01-24T06:41:41.258Z,9.10
2018-01-24T06:44:08.747Z,9.20
2018-01-24T06:46:36.972Z,9.20
2018-01-24T06:49:04.858Z,9.20
2018-01-24T06:51:32.322Z,9.20
2018-01-24T06:53:59.822Z,9.20
2018-01-24T06:56:27.270Z,9.20
2018-01-24T06:58:54.773Z,9.20
2018-01-24T07:01:22.994Z,9.20
2018-01-24T07:03:50.451Z,9.20
2018-01-24T07:06:18.719Z,9.30
2018-01-24T07:08:46.972Z,9.30
2018-01-24T07:11:14.467Z,9.30
2018-01-24T07:38:15.525Z,9.50
2018-01-24T07:40:43.051Z,9.50
2018-01-24T07:43:10.535Z,9.60
2018-01-24T07:45:38.026Z,9.50
2018-01-24T07:48:05.536Z,9.50
2018-01-24T07:50:32.999Z,9.60
2018-01-24T07:53:00.487Z,9.60
2018-01-24T07:55:27.967Z,9.70
2018-01-24T07:57:55.427Z,9.70
2018-01-24T08:00:22.970Z,9.70
2018-01-24T08:02:50.564Z,9.70
2018-01-24T08:05:18.049Z,9.70
2018-01-24T08:07:46.357Z,9.70
2018-01-24T08:10:14.433Z,9.80
2018-01-24T08:12:42.059Z,9.80
2018-01-24T08:15:09.537Z,9.80
2018-01-24T08:17:37.028Z,9.90
2018-01-24T08:20:04.632Z,9.90
2018-01-24T08:22:32.094Z,10.00
2018-01-24T08:24:59.653Z,9.90
2018-01-24T08:27:27.115Z,10.00
2018-01-24T08:29:54.641Z,10.00
2018-01-24T08:32:22.131Z,10.00
2018-01-24T08:34:49.937Z,10.10
2018-01-24T08:37:17.419Z,10.10
2018-01-24T08:39:45.047Z,10.10
2018-01-24T08:42:13.315Z,10.20
2018-01-24T08:44:41.662Z,10.20
2018-01-24T08:47:09.372Z,10.20
2018-01-24T08:49:36.884Z,10.20
2018-01-24T08:52:04.379Z,10.20
2018-01-24T08:54:32.662Z,10.30
2018-01-24T08:57:00.918Z,10.40
2018-01-24T08:59:28.546Z,10.30
2018-01-24T09:01:56.489Z,10.40
2018-01-24T09:04:24.103Z,10.40
2018-01-24T09:06:52.353Z,10.40
2018-01-24T09:09:19.848Z,10.40
2018-01-24T09:11:48.107Z,10.40
2018-01-24T09:14:15.618Z,10.40
2018-01-24T09:16:43.103Z,10.50
2018-01-24T09:19:10.643Z,10.50
2018-01-24T09:21:38.145Z,10.50
2018-01-24T09:24:05.623Z,10.60
2018-01-24T09:26:33.954Z,10.60
2018-01-24T09:29:01.439Z,10.60
2018-01-24T09:31:28.908Z,10.60
2018-01-24T09:33:57.166Z,10.70
2018-01-24T09:36:24.638Z,10.70
2018-01-24T09:38:52.876Z,10.80
2018-01-24T09:41:20.387Z,10.70
2018-01-24T09:43:47.863Z,10.80
2018-01-24T09:46:15.331Z,10.80
2018-01-24T09:48:42.826Z,10.90
2018-01-24T09:51:10.307Z,10.90
2018-01-24T09:53:37.796Z,10.90
2018-01-24T09:56:05.255Z,10.90
2018-01-24T09:58:32.788Z,10.90
2018-01-24T10:01:00.275Z,10.90
2018-01-24T10:03:27.757Z,11.00
2018-01-24T10:05:55.232Z,11.00
2018-01-24T10:08:22.751Z,11.00
2018-01-24T10:10:50.260Z,11.00
2018-01-24T10:13:18.486Z,11.10
2018-01-24T10:15:45.955Z,11.10
2018-01-24T10:18:13.446Z,11.10
2018-01-24T10:20:41.726Z,11.20
2018-01-24T10:23:10.122Z,11.20
2018-01-24T10:25:37.608Z,11.10
2018-01-24T10:28:05.095Z,11.20
2018-01-24T10:30:32.591Z,11.20
2018-01-24T10:33:00.060Z,11.20
2018-01-24T10:35:27.691Z,11.20
2018-01-24T10:37:55.928Z,11.30
2018-01-24T10:40:23.426Z,11.30
2018-01-24T10:42:50.915Z,11.30
2018-01-24T10:45:18.405Z,11.30
2018-01-24T10:47:45.958Z,11.30
2018-01-24T10:50:13.437Z,11.40
2018-01-24T10:52:40.974Z,11.50
2018-01-24T10:55:08.434Z,11.60
2018-01-24T10:57:35.943Z,11.60
2018-01-24T11:00:04.295Z,11.70
2018-01-24T11:02:31.784Z,11.70
2018-01-24T11:04:59.258Z,11.80
2018-01-24T11:07:26.752Z,11.80
2018-01-24T11:09:54.285Z,11.90
2018-01-24T11:12:21.739Z,11.90
2018-01-24T11:14:49.258Z,12.00
2018-01-24T11:17:16.798Z,12.00
2018-01-24T11:19:44.288Z,12.00
2018-01-24T11:22:11.791Z,12.10
2018-01-24T11:24:39.266Z,12.10
2018-01-24T11:27:06.777Z,12.00
2018-01-24T11:29:34.287Z,12.10
2018-01-24T11:32:01.747Z,12.10
2018-01-24T11:34:29.246Z,12.10
2018-01-24T11:36:56.712Z,12.10
2018-01-24T11:39:24.199Z,12.10
2018-01-24T11:41:51.693Z,12.00
2018-01-24T11:44:19.275Z,12.00
2018-01-24T11:46:46.792Z,12.00
2018-01-24T11:49:14.247Z,12.00
2018-01-24T11:51:41.763Z,12.00
2018-01-24T11:54:09.218Z,12.00
2018-01-24T11:56:36.681Z,11.90
2018-01-24T11:59:04.163Z,11.90
2018-01-24T12:01:31.702Z,11.90
2018-01-24T12:03:59.166Z,11.90
2018-01-24T12:06:27.397Z,11.90
2018-01-24T12:08:55.041Z,11.90
2018-01-24T12:11:23.280Z,11.80
2018-01-24T12:13:50.867Z,11.80
2018-01-24T12:16:18.355Z,11.80
2018-01-24T12:18:46.586Z,11.90
2018-01-24T12:21:14.082Z,11.90
2018-01-24T12:23:42.446Z,11.90
2018-01-24T12:26:10.790Z,11.90
2018-01-24T12:28:39.019Z,11.90
2018-01-24T12:31:07.684Z,11.90
2018-01-24T12:33:35.256Z,11.90
2018-01-24T12:36:03.514Z,11.90
2018-01-24T12:38:31.821Z,12.00
2018-01-24T12:40:59.323Z,11.90
2018-01-24T12:43:26.829Z,12.00
2018-01-24T12:45:54.378Z,12.00
2018-01-24T12:48:21.906Z,12.00
2018-01-24T12:50:49.490Z,12.00
2018-01-24T12:53:17.731Z,12.00
2018-01-24T12:55:45.245Z,12.00
2018-01-24T12:58:12.728Z,12.00
2018-01-24T13:00:40.224Z,12.00
2018-01-24T13:03:07.726Z,12.00
2018-01-24T13:05:35.386Z,12.00
2018-01-24T13:08:02.939Z,12.00
2018-01-24T13:10:30.357Z,12.00
2018-01-24T13:12:57.831Z,12.00
2018-01-24T13:15:26.087Z,12.00
2018-01-24T13:17:53.589Z,12.00
2018-01-24T13:20:21.079Z,12.00
2018-01-24T13:22:48.535Z,12.00
2018-01-24T13:25:16.019Z,12.10
2018-01-24T13:27:43.478Z,12.00
2018-01-24T13:30:10.977Z,12.10
2018-01-24T13:32:38.460Z,12.10
2018-01-24T13:35:05.958Z,12.10
2018-01-24T13:37:34.272Z,12.10
2018-01-24T13:40:01.735Z,12.10
2018-01-24T13:42:29.198Z,12.10
2018-01-24T13:44:56.683Z,12.20
2018-01-24T13:47:24.205Z,12.10
2018-01-24T13:49:51.682Z,12.20
2018-01-24T13:52:19.316Z,12.20
2018-01-24T13:54:46.819Z,12.20
2018-01-24T13:57:14.360Z,12.20
2018-01-24T13:59:41.841Z,12.20
2018-01-24T14:02:09.427Z,12.10
2018-01-24T14:04:37.657Z,12.20
2018-01-24T14:07:05.168Z,12.20
2018-01-24T14:09:32.655Z,12.20
2018-01-24T14:12:00.128Z,12.20
2018-01-24T14:14:27.631Z,12.30
2018-01-24T14:16:55.147Z,12.30
2018-01-24T14:19:23.382Z,12.30
2018-01-24T14:21:50.922Z,12.30
2018-01-24T14:24:19.122Z,12.40
2018-01-24T14:26:46.616Z,12.40
2018-01-24T14:29:14.111Z,12.40
2018-01-24T14:31:42.351Z,12.40
2018-01-24T14:34:09.890Z,12.40
2018-01-24T14:36:37.362Z,12.50
2018-01-24T14:39:04.862Z,12.50
2018-01-24T14:41:32.427Z,12.50
2018-01-24T14:43:59.932Z,12.50
2018-01-24T14:46:27.436Z,12.50
2018-01-24T14:48:54.903Z,12.50
2018-01-24T14:51:22.398Z,12.60
2018-01-24T14:53:49.871Z,12.60
2018-01-24T14:56:17.375Z,12.60
2018-01-24T14:58:44.827Z,12.60
2018-01-24T15:01:12.297Z,12.60
2018-01-24T15:03:39.801Z,12.60
2018-01-24T15:06:07.325Z,12.60
2018-01-24T15:08:34.813Z,12.60
2018-01-24T15:11:02.479Z,12.60
2018-01-24T15:13:29.998Z,12.60
2018-01-24T15:15:57.462Z,12.60
2018-01-24T15:18:24.957Z,12.60
2018-01-24T15:20:52.418Z,12.70
2018-01-24T15:23:19.917Z,12.60
2018-01-24T15:25:47.412Z,12.70
2018-01-24T15:28:14.923Z,12.70
2018-01-24T15:30:43.232Z,12.70
2018-01-24T15:33:10.890Z,12.70
2018-01-24T15:35:38.394Z,12.70
2018-01-24T15:38:05.870Z,12.70
2018-01-24T15:40:34.185Z,12.60
2018-01-24T15:43:01.672Z,12.60
2018-01-24T15:45:29.139Z,12.60
2018-01-24T15:47:56.631Z,12.60
2018-01-24T15:50:24.108Z,12.60
2018-01-24T15:52:51.592Z,12.60
2018-01-24T15:55:19.083Z,12.60
2018-01-24T15:57:47.439Z,12.60
2018-01-24T16:00:14.952Z,12.60
2018-01-24T16:02:42.521Z,12.60
2018-01-24T16:05:09.971Z,12.60
2018-01-24T16:07:37.464Z,12.60
2018-01-24T16:10:04.927Z,12.70
2018-01-24T16:12:32.441Z,12.60
2018-01-24T16:14:59.951Z,12.70
2018-01-24T16:17:27.417Z,12.70
2018-01-24T16:19:54.909Z,12.70
2018-01-24T16:22:22.363Z,12.70
2018-01-24T16:24:49.838Z,12.70
2018-01-24T16:27:17.334Z,12.70
2018-01-24T16:29:44.792Z,12.70
2018-01-24T16:32:12.270Z,12.70
2018-01-24T16:34:40.497Z,12.80
2018-01-24T16:37:07.992Z,12.80
2018-01-24T16:39:35.467Z,12.80
2018-01-24T16:42:03.718Z,12.90
2018-01-24T16:44:31.184Z,12.80
2018-01-24T16:46:58.772Z,12.80
2018-01-24T16:49:26.239Z,12.90
2018-01-24T16:51:53.715Z,12.90
2018-01-24T16:54:21.194Z,12.90
2018-01-24T16:56:48.686Z,12.90
2018-01-24T16:59:17.071Z,12.90
2018-01-24T17:01:44.547Z,12.90
2018-01-24T17:04:12.010Z,12.90
2018-01-24T17:06:39.487Z,12.90
2018-01-24T17:09:06.971Z,12.90
2018-01-24T17:11:34.434Z,12.90
2018-01-24T17:14:01.928Z,12.90
2018-01-24T17:16:29.418Z,12.90
2018-01-24T17:18:56.919Z,12.90
2018-01-24T17:21:25.140Z,13.00
2018-01-24T17:23:52.603Z,12.90
2018-01-24T17:26:20.099Z,13.00
2018-01-24T17:28:48.327Z,13.00
2018-01-24T17:31:15.823Z,13.00
2018-01-24T17:33:43.291Z,13.00
2018-01-24T17:36:11.543Z,13.00
2018-01-24T17:38:39.031Z,13.00
2018-01-24T17:41:06.492Z,13.00
2018-01-24T17:43:34.759Z,13.00
2018-01-24T17:46:02.987Z,13.00
2018-01-24T17:48:30.513Z,13.00
2018-01-24T17:50:57.976Z,13.10
2018-01-24T17:53:25.456Z,13.10
2018-01-24T17:55:52.953Z,13.10
2018-01-24T17:58:20.443Z,13.00
2018-01-24T18:00:47.937Z,13.00
2018-01-24T18:03:16.167Z,13.00
2018-01-24T18:05:43.624Z,13.00
2018-01-24T18:08:11.127Z,13.00
2018-01-24T18:10:38.593Z,13.00
2018-01-24T18:13:06.074Z,13.00
2018-01-24T18:15:33.555Z,13.00
2018-01-24T18:18:01.048Z,13.00
2018-01-24T18:20:28.527Z,13.00
2018-01-24T18:22:56.023Z,13.00
2018-01-24T18:25:23.504Z,13.10
2018-01-24T18:27:51.001Z,13.10
2018-01-24T18:30:18.496Z,13.10
2018-01-24T18:32:46.737Z,13.10
2018-01-24T18:35:14.238Z,13.10
2018-01-24T18:37:41.696Z,13.10
2018-01-24T18:40:09.170Z,13.10
2018-01-24T18:42:36.738Z,13.10
2018-01-24T18:45:04.327Z,13.10
2018-01-24T18:47:31.800Z,13.00
2018-01-24T18:49:59.303Z,13.10
2018-01-24T18:52:26.769Z,13.00
2018-01-24T18:54:54.243Z,13.00
2018-01-24T18:57:21.887Z,13.00
2018-01-24T18:59:49.411Z,13.00
2018-01-24T19:02:17.827Z,13.00
2018-01-24T19:04:45.293Z,13.00
2018-01-24T19:07:12.870Z,13.00
2018-01-24T19:09:40.331Z,13.00
2018-01-24T19:12:08.758Z,12.90
2018-01-24T19:14:36.429Z,12.90
2018-01-24T19:17:03.914Z,12.90
2018-01-24T19:19:31.414Z,12.80
2018-01-24T19:21:58.950Z,12.80
2018-01-24T19:24:26.397Z,12.80
2018-01-24T19:26:54.812Z,12.70
2018-01-24T19:29:22.785Z,12.70
2018-01-24T19:31:50.362Z,12.60
2018-01-24T19:34:18.006Z,12.70
2018-01-24T19:36:46.249Z,12.60
2018-01-24T19:39:13.723Z,12.60
2018-01-24T19:41:41.235Z,12.60
2018-01-24T19:44:08.832Z,12.60
2018-01-24T19:46:37.311Z,12.60
2018-01-24T19:49:04.827Z,12.60
2018-01-24T19:51:32.338Z,12.60
2018-01-24T19:54:00.028Z,12.60
2018-01-24T19:56:27.724Z,12.60
2018-01-24T19:58:55.499Z,12.60
2018-01-24T20:01:23.043Z,12.60
2018-01-24T20:03:50.561Z,12.50
2018-01-24T20:06:18.032Z,12.50
2018-01-24T20:08:45.698Z,12.60
2018-01-24T20:11:13.401Z,12.60
2018-01-24T20:13:41.940Z,12.60
2018-01-24T20:16:10.339Z,12.60
2018-01-24T20:18:37.922Z,12.60
2018-01-24T20:21:05.825Z,12.60
2018-01-24T20:23:33.609Z,12.60
2018-01-24T20:26:01.648Z,12.60
2018-01-24T20:28:30.096Z,12.60
2018-01-24T20:30:57.934Z,12.60
2018-01-24T20:33:25.752Z,12.60
2018-01-24T20:35:53.807Z,12.60
2018-01-24T20:38:21.888Z,12.60
2018-01-24T20:40:49.742Z,12.50
2018-01-24T20:43:17.291Z,12.50
2018-01-24T20:45:44.815Z,12.50
2018-01-24T20:48:13.200Z,12.50
2018-01-24T20:50:41.270Z,12.40
2018-01-24T20:53:09.235Z,12.50
2018-01-24T20:55:37.409Z,12.40
2018-01-24T20:58:04.996Z,12.50
2018-01-24T21:00:32.759Z,12.40
2018-01-24T21:03:02.804Z,12.40
2018-01-24T21:05:30.349Z,12.40
2018-01-24T21:07:58.715Z,12.40
2018-01-24T21:10:26.312Z,12.40
2018-01-24T21:12:53.927Z,12.40
2018-01-24T21:15:21.381Z,12.40
2018-01-24T21:17:49.003Z,12.40
2018-01-24T21:20:17.475Z,12.50
2018-01-24T21:22:45.027Z,12.40
2018-01-24T21:25:13.283Z,12.40
2018-01-24T21:27:40.796Z,12.40
2018-01-24T21:30:20.066Z,12.40
2018-01-24T21:32:59.477Z,12.40
2018-01-24T21:35:38.945Z,12.40
2018-01-24T21:38:06.442Z,12.40
2018-01-24T21:40:33.901Z,12.40
2018-01-24T21:43:02.126Z,12.40
2018-01-24T21:45:29.631Z,12.40
2018-01-24T21:47:57.859Z,12.40
2018-01-24T21:50:25.354Z,12.40
2018-01-24T21:52:52.892Z,12.40
2018-01-24T21:55:20.349Z,12.40
2018-01-24T21:57:47.847Z,12.40
2018-01-24T22:00:16.087Z,12.40
2018-01-24T22:02:43.566Z,12.30
2018-01-24T22:05:11.073Z,12.30
2018-01-24T22:07:38.557Z,12.30
2018-01-24T22:10:06.014Z,12.20
2018-01-24T22:12:34.269Z,11.70
2018-01-24T22:15:01.743Z,11.70
2018-01-24T22:17:29.226Z,11.40
2018-01-24T22:19:56.702Z,11.10
2018-01-24T22:22:24.936Z,10.50
2018-01-24T22:24:52.421Z,10.50
2018-01-24T22:27:19.903Z,10.30
2018-01-24T22:29:47.404Z,10.10
2018-01-24T22:32:14.899Z,9.90
2018-01-24T22:34:42.364Z,9.70
2018-01-24T22:37:09.822Z,9.50
2018-01-24T22:39:37.310Z,9.30
2018-01-24T22:42:04.797Z,9.10
2018-01-24T22:44:32.272Z,9.00
2018-01-24T22:46:59.727Z,8.90
2018-01-24T22:49:27.215Z,8.90
2018-01-24T22:51:54.683Z,8.80
2018-01-24T22:54:22.126Z,8.70
2018-01-24T22:56:50.393Z,8.60
2018-01-24T22:59:18.611Z,8.50
2018-01-24T23:01:46.072Z,8.50
2018-01-24T23:04:13.574Z,8.40
2018-01-24T23:06:41.036Z,8.40
2018-01-24T23:09:09.286Z,8.30
2018-01-24T23:11:36.739Z,8.30
2018-01-24T23:14:04.223Z,8.20
2018-01-24T23:16:32.477Z,8.10
2018-01-24T23:18:59.959Z,8.10
2018-01-24T23:21:28.188Z,8.10
2018-01-24T23:23:55.687Z,8.00
2018-01-24T23:26:23.923Z,8.00
2018-01-24T23:28:52.171Z,8.00
2018-01-24T23:31:19.658Z,8.00
2018-01-24T23:33:47.147Z,8.00
2018-01-24T23:36:14.646Z,7.90
2018-01-24T23:38:42.102Z,7.90
2018-01-24T23:41:09.561Z,7.90
2018-01-24T23:43:37.039Z,7.90
2018-01-24T23:46:04.532Z,7.90
2018-01-24T23:48:31.983Z,7.90
2018-01-24T23:50:59.459Z,7.80
2018-01-24T23:53:27.687Z,7.80
2018-01-24T23:55:55.151Z,7.80
2018-01-24T23:58:22.626Z,7.80
